sensor_id;sensor_type;location;lat;lon;timestamp;pressure;altitude;pressure_sealevel;temperature;humidity
35224;BME280;21367;51.930;8.112;2023-05-23T00:02:29;100879.47;;;15.33;100.00
35224;BME280;21367;51.930;8.112;2023-05-23T00:07:34;100879.81;;;15.46;100.00
35224;BME280;21367;51.930;8.112;2023-05-23T00:12:39;100869.53;;;15.49;100.00
35224;BME280;21367;51.930;8.112;2023-05-23T00:17:45;100877.13;;;15.42;100.00
35224;BME280;21367;51.930;8.112;2023-05-23T00:22:49;100877.19;;;15.45;100.00
35224;BME280;21367;51.930;8.112;2023-05-23T00:27:54;100886.66;;;15.44;100.00
35224;BME280;21367;51.930;8.112;2023-05-23T00:33:02;100889.22;;;15.43;100.00
35224;BME280;21367;51.930;8.112;2023-05-23T00:38:06;100886.66;;;15.44;100.00
35224;BME280;21367;51.930;8.112;2023-05-23T00:43:11;100890.47;;;15.24;100.00
35224;BME280;21367;51.930;8.112;2023-05-23T00:48:18;100897.19;;;15.17;100.00
35224;BME280;21367;51.930;8.112;2023-05-23T00:53:23;100903.69;;;15.03;100.00
35224;BME280;21367;51.930;8.112;2023-05-23T00:58:28;100906.59;;;15.14;100.00
35224;BME280;21367;51.930;8.112;2023-05-23T01:03:35;100908.28;;;14.81;100.00
35224;BME280;21367;51.930;8.112;2023-05-23T01:08:38;100912.66;;;14.83;100.00
35224;BME280;21367;51.930;8.112;2023-05-23T01:13:47;100925.25;;;15.02;100.00
35224;BME280;21367;51.930;8.112;2023-05-23T01:18:59;100932.22;;;14.73;100.00
35224;BME280;21367;51.930;8.112;2023-05-23T01:24:29;100930.59;;;15.08;100.00
35224;BME280;21367;51.930;8.112;2023-05-23T01:29:43;100927.78;;;15.00;100.00
35224;BME280;21367;51.930;8.112;2023-05-23T01:34:52;100931.97;;;14.95;100.00
35224;BME280;21367;51.930;8.112;2023-05-23T01:39:56;100932.84;;;14.96;100.00
35224;BME280;21367;51.930;8.112;2023-05-23T01:45:03;100934.09;;;15.10;100.00
35224;BME280;21367;51.930;8.112;2023-05-23T01:50:08;100935.25;;;14.90;100.00
35224;BME280;21367;51.930;8.112;2023-05-23T01:55:15;100942.09;;;15.18;100.00
35224;BME280;21367;51.930;8.112;2023-05-23T02:00:25;100939.66;;;14.92;100.00
35224;BME280;21367;51.930;8.112;2023-05-23T02:05:29;100938.88;;;14.66;100.00
35224;BME280;21367;51.930;8.112;2023-05-23T02:10:34;100948.72;;;15.08;100.00
35224;BME280;21367;51.930;8.112;2023-05-23T02:15:41;100948.50;;;15.00;100.00
35224;BME280;21367;51.930;8.112;2023-05-23T02:20:45;100954.41;;;15.26;100.00
35224;BME280;21367;51.930;8.112;2023-05-23T02:25:49;100945.19;;;15.06;100.00
35224;BME280;21367;51.930;8.112;2023-05-23T02:30:55;100942.69;;;15.09;100.00
35224;BME280;21367;51.930;8.112;2023-05-23T02:35:59;100957.34;;;15.09;100.00
35224;BME280;21367;51.930;8.112;2023-05-23T02:41:04;100959.59;;;14.96;100.00
35224;BME280;21367;51.930;8.112;2023-05-23T02:46:10;100963.28;;;15.04;100.00
35224;BME280;21367;51.930;8.112;2023-05-23T02:51:14;100964.38;;;15.13;100.00
35224;BME280;21367;51.930;8.112;2023-05-23T02:56:19;100959.28;;;15.16;100.00
35224;BME280;21367;51.930;8.112;2023-05-23T03:01:25;100957.97;;;15.00;100.00
35224;BME280;21367;51.930;8.112;2023-05-23T03:06:29;100963.41;;;14.79;100.00
35224;BME280;21367;51.930;8.112;2023-05-23T03:11:33;100963.69;;;14.88;100.00
35224;BME280;21367;51.930;8.112;2023-05-23T03:16:40;100965.31;;;14.56;100.00
35224;BME280;21367;51.930;8.112;2023-05-23T03:21:44;100957.66;;;14.59;100.00
35224;BME280;21367;51.930;8.112;2023-05-23T03:26:51;100965.00;;;14.74;100.00
35224;BME280;21367;51.930;8.112;2023-05-23T03:31:58;100963.28;;;14.74;100.00
35224;BME280;21367;51.930;8.112;2023-05-23T03:37:01;100964.84;;;14.69;100.00
35224;BME280;21367;51.930;8.112;2023-05-23T03:42:05;100964.69;;;14.93;100.00
35224;BME280;21367;51.930;8.112;2023-05-23T03:47:12;100979.78;;;14.78;100.00
35224;BME280;21367;51.930;8.112;2023-05-23T03:52:18;100969.34;;;15.05;100.00
35224;BME280;21367;51.930;8.112;2023-05-23T03:57:22;100973.84;;;14.82;100.00
35224;BME280;21367;51.930;8.112;2023-05-23T04:02:28;100979.34;;;14.93;100.00
35224;BME280;21367;51.930;8.112;2023-05-23T04:07:32;100981.63;;;15.12;100.00
35224;BME280;21367;51.930;8.112;2023-05-23T04:12:37;100990.47;;;14.90;100.00
35224;BME280;21367;51.930;8.112;2023-05-23T04:17:48;100990.72;;;14.98;100.00
35224;BME280;21367;51.930;8.112;2023-05-23T04:22:53;100993.41;;;14.72;100.00
35224;BME280;21367;51.930;8.112;2023-05-23T04:27:59;100983.47;;;14.86;100.00
35224;BME280;21367;51.930;8.112;2023-05-23T04:33:05;100984.81;;;15.03;100.00
35224;BME280;21367;51.930;8.112;2023-05-23T04:38:09;100999.22;;;14.94;100.00
35224;BME280;21367;51.930;8.112;2023-05-23T04:43:15;100996.00;;;14.72;100.00
35224;BME280;21367;51.930;8.112;2023-05-23T04:48:28;101013.75;;;14.89;100.00
35224;BME280;21367;51.930;8.112;2023-05-23T04:53:34;101015.63;;;14.94;100.00
35224;BME280;21367;51.930;8.112;2023-05-23T04:58:40;101020.75;;;15.23;100.00
35224;BME280;21367;51.930;8.112;2023-05-23T05:03:49;101017.91;;;15.14;100.00
35224;BME280;21367;51.930;8.112;2023-05-23T05:08:53;101020.75;;;14.93;100.00
35224;BME280;21367;51.930;8.112;2023-05-23T05:13:57;101036.13;;;14.88;100.00
35224;BME280;21367;51.930;8.112;2023-05-23T05:19:04;101029.00;;;14.51;100.00
35224;BME280;21367;51.930;8.112;2023-05-23T05:24:08;101036.13;;;14.88;100.00
35224;BME280;21367;51.930;8.112;2023-05-23T05:29:12;101036.84;;;14.83;100.00
35224;BME280;21367;51.930;8.112;2023-05-23T05:34:19;101043.81;;;14.85;100.00
35224;BME280;21367;51.930;8.112;2023-05-23T05:39:24;101050.78;;;14.88;100.00
35224;BME280;21367;51.930;8.112;2023-05-23T05:44:29;101059.31;;;14.56;100.00
35224;BME280;21367;51.930;8.112;2023-05-23T05:49:35;101065.56;;;14.36;100.00
35224;BME280;21367;51.930;8.112;2023-05-23T05:54:39;101067.34;;;14.64;100.00
35224;BME280;21367;51.930;8.112;2023-05-23T05:59:43;101070.03;;;14.96;100.00
35224;BME280;21367;51.930;8.112;2023-05-23T06:04:50;101081.88;;;14.61;100.00
35224;BME280;21367;51.930;8.112;2023-05-23T06:09:54;101078.47;;;14.36;100.00
35224;BME280;21367;51.930;8.112;2023-05-23T06:14:57;101089.34;;;14.51;100.00
35224;BME280;21367;51.930;8.112;2023-05-23T06:37:44;101107.38;;;14.24;100.00
35224;BME280;21367;51.930;8.112;2023-05-23T06:55:58;101125.63;;;14.03;100.00
35224;BME280;21367;51.930;8.112;2023-05-23T07:01:28;101141.09;;;14.27;100.00
35224;BME280;21367;51.930;8.112;2023-05-23T07:07:28;101150.88;;;14.36;100.00
35224;BME280;21367;51.930;8.112;2023-05-23T07:13:14;101159.97;;;13.53;100.00
35224;BME280;21367;51.930;8.112;2023-05-23T07:21:35;101158.56;;;14.34;100.00
35224;BME280;21367;51.930;8.112;2023-05-23T07:24:45;101168.94;;;14.60;100.00
35224;BME280;21367;51.930;8.112;2023-05-23T07:36:11;101175.06;;;14.38;100.00
35224;BME280;21367;51.930;8.112;2023-05-23T07:41:39;101173.50;;;14.18;100.00
35224;BME280;21367;51.930;8.112;2023-05-23T07:46:51;101190.56;;;14.38;100.00
35224;BME280;21367;51.930;8.112;2023-05-23T07:51:58;101190.13;;;14.24;100.00
35224;BME280;21367;51.930;8.112;2023-05-23T07:57:11;101197.09;;;14.27;100.00
35224;BME280;21367;51.930;8.112;2023-05-23T08:26:27;101236.03;;;13.83;100.00
35224;BME280;21367;51.930;8.112;2023-05-23T08:31:36;101243.13;;;14.13;100.00
35224;BME280;21367;51.930;8.112;2023-05-23T08:36:43;101252.38;;;13.82;100.00
35224;BME280;21367;51.930;8.112;2023-05-23T08:41:53;101253.91;;;13.55;100.00
35224;BME280;21367;51.930;8.112;2023-05-23T08:47:02;101261.63;;;13.77;100.00
35224;BME280;21367;51.930;8.112;2023-05-23T08:52:20;101260.28;;;13.64;100.00
35224;BME280;21367;51.930;8.112;2023-05-23T08:57:34;101264.34;;;13.80;100.00
35224;BME280;21367;51.930;8.112;2023-05-23T09:02:56;101275.41;;;14.00;100.00
35224;BME280;21367;51.930;8.112;2023-05-23T09:08:23;101285.84;;;13.36;100.00
35224;BME280;21367;51.930;8.112;2023-05-23T09:13:34;101295.28;;;13.14;100.00
35224;BME280;21367;51.930;8.112;2023-05-23T09:18:42;101298.41;;;13.27;100.00
35224;BME280;21367;51.930;8.112;2023-05-23T09:23:49;101315.25;;;12.78;100.00
35224;BME280;21367;51.930;8.112;2023-05-23T09:28:58;101307.47;;;13.18;100.00
35224;BME280;21367;51.930;8.112;2023-05-23T09:34:03;101311.44;;;13.30;100.00
35224;BME280;21367;51.930;8.112;2023-05-23T09:39:07;101322.00;;;13.79;100.00
35224;BME280;21367;51.930;8.112;2023-05-23T09:44:21;101333.75;;;13.50;100.00
35224;BME280;21367;51.930;8.112;2023-05-23T11:27:32;101399.00;;;17.29;67.68
35224;BME280;21367;51.930;8.112;2023-05-23T11:32:37;101402.22;;;15.73;69.68
35224;BME280;21367;51.930;8.112;2023-05-23T11:37:42;101405.78;;;16.32;70.28
35224;BME280;21367;51.930;8.112;2023-05-23T11:42:49;101406.09;;;16.73;68.98
35224;BME280;21367;51.930;8.112;2023-05-23T11:47:52;101406.44;;;16.25;68.16
35224;BME280;21367;51.930;8.112;2023-05-23T11:52:56;101423.59;;;16.77;67.52
35224;BME280;21367;51.930;8.112;2023-05-23T11:58:02;101414.47;;;17.25;64.65
35224;BME280;21367;51.930;8.112;2023-05-23T12:03:06;101420.78;;;17.68;61.66
35224;BME280;21367;51.930;8.112;2023-05-23T12:08:11;101434.59;;;17.00;65.05
35224;BME280;21367;51.930;8.112;2023-05-23T12:13:19;101426.41;;;17.86;63.36
35224;BME280;21367;51.930;8.112;2023-05-23T12:18:27;101426.94;;;17.38;64.38
35224;BME280;21367;51.930;8.112;2023-05-23T12:23:32;101421.00;;;20.56;59.32
35224;BME280;21367;51.930;8.112;2023-05-23T12:28:39;101420.59;;;20.94;54.75
35224;BME280;21367;51.930;8.112;2023-05-23T12:33:45;101427.19;;;20.63;55.02
35224;BME280;21367;51.930;8.112;2023-05-23T12:38:49;101420.88;;;20.48;54.07
35224;BME280;21367;51.930;8.112;2023-05-23T12:43:56;101422.19;;;18.70;57.14
35224;BME280;21367;51.930;8.112;2023-05-23T12:49:00;101408.69;;;19.86;55.25
35224;BME280;21367;51.930;8.112;2023-05-23T12:54:04;101422.97;;;19.57;53.26
35224;BME280;21367;51.930;8.112;2023-05-23T12:59:10;101428.81;;;20.54;51.73
35224;BME280;21367;51.930;8.112;2023-05-23T13:04:14;101432.91;;;22.05;48.98
35224;BME280;21367;51.930;8.112;2023-05-23T13:09:18;101428.44;;;20.30;51.65
35224;BME280;21367;51.930;8.112;2023-05-23T13:14:24;101438.44;;;21.35;51.37
35224;BME280;21367;51.930;8.112;2023-05-23T13:19:28;101435.25;;;20.81;50.05
35224;BME280;21367;51.930;8.112;2023-05-23T13:24:31;101432.03;;;21.08;50.23
35224;BME280;21367;51.930;8.112;2023-05-23T13:29:39;101443.50;;;19.38;54.25
35224;BME280;21367;51.930;8.112;2023-05-23T13:34:43;101444.34;;;21.17;50.06
35224;BME280;21367;51.930;8.112;2023-05-23T13:39:47;101429.22;;;20.90;49.62
35224;BME280;21367;51.930;8.112;2023-05-23T13:44:53;101441.16;;;20.05;51.08
35224;BME280;21367;51.930;8.112;2023-05-23T13:49:57;101439.00;;;19.30;51.92
35224;BME280;21367;51.930;8.112;2023-05-23T13:55:01;101445.06;;;21.05;51.52
35224;BME280;21367;51.930;8.112;2023-05-23T14:00:10;101446.56;;;23.20;44.99
35224;BME280;21367;51.930;8.112;2023-05-23T14:05:13;101452.00;;;19.77;49.72
35224;BME280;21367;51.930;8.112;2023-05-23T14:10:20;101433.88;;;22.16;45.54
35224;BME280;21367;51.930;8.112;2023-05-23T14:15:26;101443.81;;;21.48;47.00
35224;BME280;21367;51.930;8.112;2023-05-23T14:20:37;101443.59;;;20.54;47.94
35224;BME280;21367;51.930;8.112;2023-05-23T14:25:40;101444.63;;;21.41;47.19
35224;BME280;21367;51.930;8.112;2023-05-23T14:30:51;101447.28;;;18.65;50.26
35224;BME280;21367;51.930;8.112;2023-05-23T14:35:55;101460.78;;;18.48;52.86
35224;BME280;21367;51.930;8.112;2023-05-23T14:41:00;101459.50;;;18.30;53.82
35224;BME280;21367;51.930;8.112;2023-05-23T14:46:08;101464.22;;;18.08;54.07
35224;BME280;21367;51.930;8.112;2023-05-23T14:51:17;101463.66;;;19.47;51.65
35224;BME280;21367;51.930;8.112;2023-05-23T14:56:21;101473.59;;;18.01;55.43
35224;BME280;21367;51.930;8.112;2023-05-23T15:01:29;101475.22;;;17.62;53.60
35224;BME280;21367;51.930;8.112;2023-05-23T15:06:32;101467.13;;;17.84;53.33
35224;BME280;21367;51.930;8.112;2023-05-23T15:11:36;101476.31;;;18.44;52.27
35224;BME280;21367;51.930;8.112;2023-05-23T15:16:44;101465.91;;;20.32;49.30
35224;BME280;21367;51.930;8.112;2023-05-23T15:21:50;101476.53;;;19.39;49.16
35224;BME280;21367;51.930;8.112;2023-05-23T15:26:53;101469.78;;;20.01;48.62
35224;BME280;21367;51.930;8.112;2023-05-23T15:32:00;101474.16;;;20.60;48.87
35224;BME280;21367;51.930;8.112;2023-05-23T15:37:04;101463.53;;;21.19;47.20
35224;BME280;21367;51.930;8.112;2023-05-23T15:42:08;101473.00;;;19.36;49.22
35224;BME280;21367;51.930;8.112;2023-05-23T15:47:14;101464.56;;;19.49;49.71
35224;BME280;21367;51.930;8.112;2023-05-23T15:52:20;101472.47;;;20.05;50.30
35224;BME280;21367;51.930;8.112;2023-05-23T15:57:23;101458.69;;;20.75;45.66
35224;BME280;21367;51.930;8.112;2023-05-23T16:02:30;101453.75;;;21.92;45.21
35224;BME280;21367;51.930;8.112;2023-05-23T16:07:36;101464.22;;;19.78;47.76
35224;BME280;21367;51.930;8.112;2023-05-23T16:12:39;101476.06;;;18.33;49.69
35224;BME280;21367;51.930;8.112;2023-05-23T16:17:46;101463.47;;;19.86;48.68
35224;BME280;21367;51.930;8.112;2023-05-23T16:22:51;101476.91;;;20.69;45.82
35224;BME280;21367;51.930;8.112;2023-05-23T16:27:55;101469.56;;;22.05;43.21
35224;BME280;21367;51.930;8.112;2023-05-23T16:33:09;101467.16;;;22.32;42.77
35224;BME280;21367;51.930;8.112;2023-05-23T16:38:12;101466.69;;;23.28;42.45
35224;BME280;21367;51.930;8.112;2023-05-23T16:43:16;101464.75;;;20.72;45.24
35224;BME280;21367;51.930;8.112;2023-05-23T16:48:23;101471.19;;;18.47;48.15
35224;BME280;21367;51.930;8.112;2023-05-23T16:53:26;101470.19;;;18.04;49.83
35224;BME280;21367;51.930;8.112;2023-05-23T16:58:30;101470.19;;;18.02;51.50
35224;BME280;21367;51.930;8.112;2023-05-23T17:03:40;101471.31;;;17.77;51.53
35224;BME280;21367;51.930;8.112;2023-05-23T17:08:46;101471.38;;;19.41;49.37
35224;BME280;21367;51.930;8.112;2023-05-23T17:13:50;101473.63;;;19.23;49.13
35224;BME280;21367;51.930;8.112;2023-05-23T17:18:57;101475.16;;;17.93;50.97
35224;BME280;21367;51.930;8.112;2023-05-23T17:24:01;101484.09;;;17.37;49.93
35224;BME280;21367;51.930;8.112;2023-05-23T17:29:06;101477.78;;;18.31;49.03
35224;BME280;21367;51.930;8.112;2023-05-23T17:34:13;101483.56;;;18.19;48.24
35224;BME280;21367;51.930;8.112;2023-05-23T17:39:17;101475.44;;;16.76;50.94
35224;BME280;21367;51.930;8.112;2023-05-23T17:44:21;101479.97;;;17.13;51.43
35224;BME280;21367;51.930;8.112;2023-05-23T17:49:30;101474.78;;;15.99;52.94
35224;BME280;21367;51.930;8.112;2023-05-23T17:54:38;101484.25;;;15.98;53.53
35224;BME280;21367;51.930;8.112;2023-05-23T17:59:42;101495.81;;;15.81;53.75
35224;BME280;21367;51.930;8.112;2023-05-23T18:04:49;101492.91;;;15.47;55.20
35224;BME280;21367;51.930;8.112;2023-05-23T18:09:53;101483.13;;;15.39;55.47
35224;BME280;21367;51.930;8.112;2023-05-23T18:14:59;101487.47;;;15.40;56.67
35224;BME280;21367;51.930;8.112;2023-05-23T18:20:07;101494.00;;;15.04;57.68
35224;BME280;21367;51.930;8.112;2023-05-23T18:25:11;101497.75;;;14.45;58.93
35224;BME280;21367;51.930;8.112;2023-05-23T18:30:19;101495.38;;;14.72;58.88
35224;BME280;21367;51.930;8.112;2023-05-23T18:35:28;101497.25;;;14.76;58.81
35224;BME280;21367;51.930;8.112;2023-05-23T18:40:32;101518.44;;;14.89;59.15
35224;BME280;21367;51.930;8.112;2023-05-23T18:45:35;101521.78;;;14.43;59.30
35224;BME280;21367;51.930;8.112;2023-05-23T18:50:42;101523.84;;;14.08;60.72
35224;BME280;21367;51.930;8.112;2023-05-23T18:55:46;101526.63;;;13.92;61.41
35224;BME280;21367;51.930;8.112;2023-05-23T19:00:50;101550.59;;;14.08;61.53
35224;BME280;21367;51.930;8.112;2023-05-23T19:05:57;101553.94;;;13.65;62.10
35224;BME280;21367;51.930;8.112;2023-05-23T19:11:02;101572.03;;;13.27;62.96
35224;BME280;21367;51.930;8.112;2023-05-23T19:16:07;101570.19;;;13.43;62.37
35224;BME280;21367;51.930;8.112;2023-05-23T19:21:14;101578.78;;;12.87;62.93
35224;BME280;21367;51.930;8.112;2023-05-23T19:26:20;101581.78;;;12.41;63.88
35224;BME280;21367;51.930;8.112;2023-05-23T19:31:26;101591.03;;;12.38;63.18
35224;BME280;21367;51.930;8.112;2023-05-23T19:36:32;101594.13;;;12.31;64.04
35224;BME280;21367;51.930;8.112;2023-05-23T19:41:36;101598.19;;;12.25;65.35
35224;BME280;21367;51.930;8.112;2023-05-23T19:46:41;101607.75;;;12.28;64.27
35224;BME280;21367;51.930;8.112;2023-05-23T19:51:48;101611.28;;;11.96;65.17
35224;BME280;21367;51.930;8.112;2023-05-23T19:56:52;101622.25;;;11.75;64.55
35224;BME280;21367;51.930;8.112;2023-05-23T20:01:57;101630.69;;;11.73;65.25
35224;BME280;21367;51.930;8.112;2023-05-23T20:07:04;101622.41;;;11.78;65.33
35224;BME280;21367;51.930;8.112;2023-05-23T20:12:09;101636.97;;;11.45;65.71
35224;BME280;21367;51.930;8.112;2023-05-23T20:17:13;101640.00;;;11.38;65.59
35224;BME280;21367;51.930;8.112;2023-05-23T20:22:19;101644.00;;;11.33;65.77
35224;BME280;21367;51.930;8.112;2023-05-23T20:27:23;101647.81;;;11.40;65.27
35224;BME280;21367;51.930;8.112;2023-05-23T20:32:26;101659.84;;;11.24;65.99
35224;BME280;21367;51.930;8.112;2023-05-23T20:37:35;101652.28;;;11.27;64.91
35224;BME280;21367;51.930;8.112;2023-05-23T20:42:39;101659.72;;;11.06;65.14
35224;BME280;21367;51.930;8.112;2023-05-23T20:47:44;101670.25;;;11.11;65.29
35224;BME280;21367;51.930;8.112;2023-05-23T20:52:51;101671.75;;;11.22;65.20
35224;BME280;21367;51.930;8.112;2023-05-23T20:57:54;101676.41;;;11.13;65.46
35224;BME280;21367;51.930;8.112;2023-05-23T21:02:58;101682.59;;;11.17;65.93
35224;BME280;21367;51.930;8.112;2023-05-23T21:08:05;101677.19;;;10.66;67.92
35224;BME280;21367;51.930;8.112;2023-05-23T21:13:08;101691.31;;;10.89;68.94
35224;BME280;21367;51.930;8.112;2023-05-23T21:18:12;101679.28;;;10.73;69.41
35224;BME280;21367;51.930;8.112;2023-05-23T21:23:18;101694.88;;;10.91;69.68
35224;BME280;21367;51.930;8.112;2023-05-23T21:28:22;101691.50;;;10.92;70.10
35224;BME280;21367;51.930;8.112;2023-05-23T21:33:26;101690.34;;;10.87;71.00
35224;BME280;21367;51.930;8.112;2023-05-23T21:38:32;101687.63;;;10.69;71.20
35224;BME280;21367;51.930;8.112;2023-05-23T21:43:37;101682.84;;;10.60;72.17
35224;BME280;21367;51.930;8.112;2023-05-23T21:48:41;101680.81;;;10.55;73.04
35224;BME280;21367;51.930;8.112;2023-05-23T21:53:47;101672.66;;;10.47;73.06
35224;BME280;21367;51.930;8.112;2023-05-23T21:58:51;101675.41;;;10.50;73.43
35224;BME280;21367;51.930;8.112;2023-05-23T22:03:55;101668.69;;;10.37;74.22
35224;BME280;21367;51.930;8.112;2023-05-23T22:09:02;101669.16;;;10.17;75.26
35224;BME280;21367;51.930;8.112;2023-05-23T22:14:05;101670.81;;;10.02;75.50
35224;BME280;21367;51.930;8.112;2023-05-23T22:19:09;101670.00;;;9.88;76.08
35224;BME280;21367;51.930;8.112;2023-05-23T22:24:20;101671.75;;;9.89;76.80
35224;BME280;21367;51.930;8.112;2023-05-23T22:29:25;101666.44;;;9.86;77.49
35224;BME280;21367;51.930;8.112;2023-05-23T22:34:28;101665.50;;;9.70;78.13
35224;BME280;21367;51.930;8.112;2023-05-23T22:39:35;101667.63;;;9.63;78.53
35224;BME280;21367;51.930;8.112;2023-05-23T22:44:38;101675.31;;;9.63;78.71
35224;BME280;21367;51.930;8.112;2023-05-23T22:49:42;101678.28;;;9.56;78.98
35224;BME280;21367;51.930;8.112;2023-05-23T22:54:48;101681.06;;;9.45;79.54
35224;BME280;21367;51.930;8.112;2023-05-23T22:59:52;101684.75;;;9.36;80.23
35224;BME280;21367;51.930;8.112;2023-05-23T23:04:55;101675.78;;;9.29;80.29
35224;BME280;21367;51.930;8.112;2023-05-23T23:10:04;101675.81;;;9.16;81.11
35224;BME280;21367;51.930;8.112;2023-05-23T23:15:08;101676.28;;;9.23;81.29
35224;BME280;21367;51.930;8.112;2023-05-23T23:20:12;101686.94;;;9.16;81.93
35224;BME280;21367;51.930;8.112;2023-05-23T23:25:19;101687.13;;;8.93;82.56
35224;BME280;21367;51.930;8.112;2023-05-23T23:30:23;101683.19;;;9.11;82.26
35224;BME280;21367;51.930;8.112;2023-05-23T23:35:26;101688.25;;;8.96;82.58
35224;BME280;21367;51.930;8.112;2023-05-23T23:40:33;101681.53;;;8.85;83.20
35224;BME280;21367;51.930;8.112;2023-05-23T23:45:37;101684.31;;;8.75;83.78
35224;BME280;21367;51.930;8.112;2023-05-23T23:50:41;101681.13;;;8.79;83.93
35224;BME280;21367;51.930;8.112;2023-05-23T23:55:48;101683.78;;;8.80;83.84
